Terminal Aerodrome Forecast
Issued by NWS

Home | Current Version | Previous Version | Text Only | Print | Product List | Glossary On
Versions: 1 2 3 4 5 6 7 8 9 10 11 12 13 14 15 16 17
000
FTUS44 KLZK 302104 AAA
TAFHRO
TAF AMD
KHRO 302104Z 3021/3118 29006KT P6SM VCTS SCT050CB BKN090 OVC250
     FM310000 14005KT P6SM VCTS SCT040CB BKN080 OVC250
     FM310600 VRB03KT P6SM OVC040
      TEMPO 3110/3114 3SM -SHRA BR BKN025 OVC040=

USA.gov is the U.S. government's official web portal to all federal, state and local government web resources and services.